Port Lavaca, TX

10:08 AM CDT on August 28, 2014 (GMT -0500)
J.S. Farms - 7 miles west of Port Lavaca | Change Station
CLOSE
Current Station
Personal Weather Station
Location: Port Lavaca, TX
Elevation: 43 ft
Nearby Weather Stations

Elev 43 ft 28.60 °N, 96.73 °W | Updated 14 minutes ago

Scattered Clouds
Scattered Clouds
83.4 °F
Feels Like 93 °F
N
10.0
Wind Variable Wind from ESE
Gusts 12.0 mph

Today
High -- | Low -- °F
--% Chance of Precip.
Yesterday
High -- | Low -- °F
Precip. -- in
7:02 AM 7:52 PM
Waxing Crescent, 8% visible
Pressure 29.92 in
Visibility 10.0 miles
Clouds Scattered Clouds 1100 ft
Scattered Clouds 6000 ft
Scattered Clouds 7000 ft
Heat Index 93 °F
Dew Point 78 °F
Humidity 83%
Rainfall 0.00 in
Snow Depth Not available.
UV 3 out of 12
Pollen 6.60 out of 12
Ozone Good
Flu Activity Not available.
METAR KPKV 281455Z AUTO 10008KT 10SM SCT011 SCT060 SCT070 29/25 A2992 RMK AO2 T02850248

More Conditions Fewer Conditions

Pressure 29.92 in
Visibility 10.0 miles
Clouds Scattered Clouds 1100 ft
Scattered Clouds 6000 ft
Scattered Clouds 7000 ft
Heat Index 93 °F
Dew Point 78 °F
Humidity 83%
Rainfall 0.00 in
Snow Depth Not available.
UV 3 out of 12
Pollen 6.60 out of 12
Ozone Good
Flu Activity Not available.
METAR KPKV 281455Z AUTO 10008KT 10SM SCT011 SCT060 SCT070 29/25 A2992 RMK AO2 T02850248

More Conditions Fewer Conditions

Nowcast | as of 9:34 am CDT on August 28, 2014

Through 1130 am CDT...showers and thunderstorms continue over the nearshore and offshore Gulf waters...as well as the coast. Light to moderate rainfall can be expected with this activity. Rainfall amounts will be around a tenth of an inch or less over land.

×

10-Day Weather Forecast

Almanac

Astronomy

Aug. 28, 2014 Rise Set
Actual Time 7:02 AM CDT 7:52 PM CDT
Civil Twilight 6:38 AM CDT 8:16 PM CDT
Nautical Twilight 6:10 AM CDT 8:45 PM CDT
Astronomical Twilight 5:41 AM CDT 9:14 PM CDT
Moon 9:38 AM CDT 9:36 PM CDT
Length of Visible Light 13h 37m
Length of Day
12h 49m
Tomorrow will be 1m 37s shorter.
Waxing Crescent, 8% of the Moon is Illuminated
Today
Waxing Crescent
Sep 2
First Quarter
Sep 8
Full
Sep 15
Last Quarter
Sep 24
New

Today's Extremes

State Highs State Lows

Community

WunderPhotos

Upload Photos

1,747,981 photos uploaded!

Nearby

Air Quality

  Air Quality AQ Index Pollutant
Yesterday Good
OZONE
Current Good
OZONE
Thursday Good
OZONE
Thursday Good
PM10
Friday Good
OZONE
Friday Good
PM10
Saturday Good
OZONE
Saturday Good
PM10
Sunday Good
OZONE
Sunday Good
PM10

Snow Depth

Station Depth Elevation
No new snow has been reported.

Earthquake Activity

City Distance Mag. Time & Date
No recent earthquake activity has been reported nearby.
Minimum magnitude displayed is 2.5.

Coastal Water Temperatures

Place Temperature
Seadrift, TX 84.9 °F
Rockport, TX 87.1 °F
USCG Freeport, TX 86.0 °F

Nearby Weather Stations